Terminal Aerodrome Forecast
Issued by NWS Corpus Christi, TX

Current Version | Previous Version | Text Only | Print | Product List | Glossary On
Versions: 1 2 3 4 5 6 7 8 9 10 11 12 13 14 15 16 17 18 19 20 21 22
874
FTUS44 KCRP 060529
TAFCRP
TAF
KCRP 060529Z 0606/0706 20004KT P6SM SKC
      TEMPO 0611/0614 6SM MIFG
     FM061500 23010KT P6SM SKC
     FM062200 13010KT P6SM SKC
     FM070100 03008KT P6SM SKC=

USA.gov is the U.S. government's official web portal to all federal, state and local government web resources and services.